Time;durP1;ratioP1;P1;durP2;ratioP2;P2;SDS_P1;SDS_P2;PMS_P1;PMS_P2;Temp;Humidity;BMP_temperature;BMP_pressure;BME280_temperature;BME280_humidity;BME280_pressure;Samples;Min_cycle;Max_cycle;Signal;HPM_P1;HPM_P2
2021/11/26 00:01:13;;;;;;;65.50;27.02;;;4.40;99.90;;;4.83;100.00;99640.03;5054296;28;20041;-77
2021/11/26 00:03:41;;;;;;;61.03;25.48;;;4.30;99.90;;;4.79;100.00;99626.06;5054326;28;20366;-78
2021/11/26 00:06:07;;;;;;;66.70;27.58;;;4.40;99.90;;;4.69;100.00;99621.78;5053839;28;20063;-77
2021/11/26 00:08:36;;;;;;;65.47;27.23;;;4.40;99.90;;;4.75;100.00;99625.16;5036285;28;20056;-78
2021/11/26 00:11:05;;;;;;;63.38;27.23;;;4.30;99.90;;;4.79;100.00;99612.22;5053888;28;20492;-77
2021/11/26 00:13:43;;;;;;;59.40;26.48;;;4.40;99.90;;;4.78;100.00;99618.94;5036114;28;20086;-77
2021/11/26 00:16:18;;;;;;;73.25;27.98;;;4.40;99.90;;;4.74;100.00;99613.28;5054003;28;20107;-77
2021/11/26 00:18:49;;;;;;;63.60;24.17;;;4.40;99.90;;;4.73;100.00;99603.38;5054120;28;20025;-77
2021/11/26 00:21:16;;;;;;;64.18;25.30;;;4.40;99.90;;;4.80;100.00;99608.31;5046690;28;20140;-78
2021/11/26 00:23:45;;;;;;;63.15;27.75;;;4.40;99.90;;;4.73;100.00;99599.78;5015515;28;20122;-76
2021/11/26 00:26:11;;;;;;;66.43;26.30;;;4.30;99.90;;;4.76;100.00;99601.88;5033456;28;20041;-77
2021/11/26 00:28:40;;;;;;;63.97;25.52;;;4.40;99.90;;;4.79;100.00;99604.75;5034510;28;20030;-77
2021/11/26 00:31:06;;;;;;;64.65;24.52;;;4.40;99.90;;;4.77;100.00;99601.53;5033415;28;20033;-77
2021/11/26 00:33:33;;;;;;;57.63;23.80;;;4.40;99.90;;;4.84;100.00;99600.16;5033260;28;20420;-78
2021/11/26 00:35:59;;;;;;;71.38;24.42;;;4.40;99.90;;;4.82;100.00;99594.16;5033691;28;20077;-78
2021/11/26 00:38:25;;;;;;;58.95;22.50;;;4.40;99.90;;;4.82;100.00;99596.94;5033775;28;20491;-78
2021/11/26 00:40:51;;;;;;;53.88;22.67;;;4.40;99.90;;;4.80;100.00;99591.72;5016333;28;20043;-77
2021/11/26 00:43:17;;;;;;;48.95;20.10;;;4.30;99.90;;;4.76;100.00;99588.84;5033372;28;20473;-78
2021/11/26 00:45:43;;;;;;;48.35;20.98;;;4.30;99.90;;;4.69;100.00;99588.59;5033494;28;20030;-76
2021/11/26 00:48:09;;;;;;;50.63;21.25;;;4.30;99.90;;;4.72;100.00;99582.38;5033010;28;20169;-76
2021/11/26 00:50:38;;;;;;;55.05;20.95;;;4.30;99.90;;;4.71;100.00;99572.50;5033921;28;20029;-78
2021/11/26 00:53:07;;;;;;;51.22;21.40;;;4.30;99.90;;;4.68;100.00;99573.19;5033091;28;20037;-76
2021/11/26 00:55:40;;;;;;;60.03;24.33;;;4.30;99.90;;;4.68;100.00;99567.66;5032536;28;20544;-78
2021/11/26 00:58:09;;;;;;;53.60;21.52;;;4.30;99.90;;;4.77;100.00;99556.47;5032584;28;20053;-76
2021/11/26 01:00:35;;;;;;;48.75;19.67;;;4.30;99.90;;;4.76;100.00;99552.06;5032407;28;20440;-76
2021/11/26 01:03:06;;;;;;;43.17;18.85;;;4.30;99.90;;;4.80;100.00;99547.47;5033051;28;20029;-77
2021/11/26 01:05:33;;;;;;;53.78;21.85;;;4.30;99.90;;;4.73;100.00;99536.97;5033116;28;20484;-76
2021/11/26 01:07:59;;;;;;;52.13;21.85;;;4.30;99.90;;;4.71;100.00;99536.53;5032163;28;20061;-75
2021/11/26 01:10:26;;;;;;;51.85;21.15;;;4.30;99.90;;;4.66;100.00;99535.94;5032649;28;20467;-77
2021/11/26 01:12:54;;;;;;;54.13;22.52;;;4.30;99.90;;;4.59;100.00;99532.97;5014706;28;20029;-76
2021/11/26 01:15:30;;;;;;;61.83;23.35;;;4.30;99.90;;;4.60;100.00;99526.25;5032342;28;20029;-76
2021/11/26 01:17:58;;;;;;;61.10;21.77;;;4.20;99.90;;;4.64;100.00;99524.41;5032410;28;20091;-77
2021/11/26 01:20:30;;;;;;;52.53;21.90;;;4.30;99.90;;;4.67;100.00;99532.84;5032657;28;20026;-77
2021/11/26 01:22:58;;;;;;;58.78;22.73;;;4.30;99.90;;;4.70;100.00;99525.81;5052514;28;20476;-78
2021/11/26 01:25:28;;;;;;;57.33;22.65;;;4.30;99.90;;;4.72;100.00;99523.47;5052749;28;20044;-77
2021/11/26 01:27:55;;;;;;;55.85;23.30;;;4.30;99.90;;;4.74;100.00;99518.44;5052079;28;20373;-77
2021/11/26 01:30:35;;;;;;;60.45;22.73;;;4.30;99.90;;;4.73;100.00;99509.31;5052556;28;20033;-77
2021/11/26 01:33:16;;;;;;;54.78;22.75;;;4.30;99.90;;;4.73;100.00;99514.03;5034464;28;20033;-78
2021/11/26 01:35:47;;;;;;;57.30;22.70;;;4.30;99.90;;;4.75;100.00;99504.25;5053320;28;20060;-79
2021/11/26 01:38:13;;;;;;;56.22;23.02;;;4.30;99.90;;;4.76;100.00;99500.31;5052451;28;20029;-76
2021/11/26 01:40:43;;;;;;;61.10;23.30;;;4.30;99.90;;;4.65;100.00;99495.63;5052509;28;20133;-77
2021/11/26 01:43:14;;;;;;;61.85;23.92;;;4.30;99.90;;;4.58;100.00;99482.38;5052247;28;20029;-76
2021/11/26 01:45:53;;;;;;;63.35;23.27;;;4.20;99.90;;;4.55;100.00;99485.03;5034299;28;20546;-76
2021/11/26 01:48:24;;;;;;;59.17;22.13;;;4.20;99.90;;;4.46;100.00;99474.09;5052459;28;20056;-77
2021/11/26 01:51:06;;;;;;;68.03;23.30;;;4.10;99.90;;;4.34;100.00;99476.84;5054259;28;20052;-77
2021/11/26 01:53:33;;;;;;;64.30;22.70;;;4.00;99.90;;;4.27;100.00;99467.53;5056558;28;20024;-77
2021/11/26 01:56:14;;;;;;;65.38;22.52;;;4.00;99.90;;;4.26;100.00;99458.41;5053121;28;20025;-76
2021/11/26 01:58:40;;;;;;;58.78;21.75;;;3.90;99.90;;;4.16;100.00;99450.56;5091410;23;20083;-83
2021/11/26 02:01:10;;;;;;;62.00;23.27;;;3.90;99.90;;;4.19;100.00;99438.84;5089898;28;20029;-84
2021/11/26 02:03:36;;;;;;;59.90;22.27;;;3.80;99.90;;;4.14;100.00;99426.03;5091543;28;20021;-82
2021/11/26 02:06:05;;;;;;;59.20;22.20;;;3.80;99.90;;;4.19;100.00;99428.59;5077631;28;20029;-82
2021/11/26 02:08:31;;;;;;;72.15;23.20;;;3.80;99.90;;;4.17;100.00;99419.03;5078595;28;20115;-82
2021/11/26 02:11:00;;;;;;;61.50;24.55;;;3.80;99.90;;;4.21;100.00;99419.94;5076882;28;20495;-81
2021/11/26 02:13:26;;;;;;;64.25;23.58;;;3.80;99.90;;;4.26;100.00;99411.44;5074312;28;20513;-79
2021/11/26 02:15:59;;;;;;;65.28;21.95;;;3.80;99.90;;;4.28;100.00;99411.06;5074687;28;20385;-80
2021/11/26 02:18:26;;;;;;;63.05;24.70;;;3.80;99.90;;;4.30;100.00;99404.06;5075548;28;20033;-80
2021/11/26 02:20:53;;;;;;;60.80;22.52;;;3.90;99.90;;;4.35;100.00;99406.59;5075530;28;20104;-81
2021/11/26 02:23:19;;;;;;;54.70;22.02;;;3.90;99.90;;;4.41;100.00;99404.38;5075534;28;20029;-80
2021/11/26 02:25:47;;;;;;;65.25;22.67;;;3.90;99.90;;;4.46;100.00;99396.69;5076386;28;20057;-81
2021/11/26 02:28:17;;;;;;;57.58;22.58;;;4.00;99.90;;;4.48;100.00;99399.06;5074315;28;20040;-80
2021/11/26 02:30:44;;;;;;;66.47;24.65;;;4.00;99.90;;;4.51;100.00;99396.44;5076492;28;20048;-82
2021/11/26 02:33:19;;;;;;;56.20;21.88;;;4.00;99.90;;;4.57;100.00;99388.69;5075304;28;20050;-80
2021/11/26 02:35:51;;;;;;;57.42;21.23;;;4.10;99.90;;;4.58;100.00;99377.28;5073831;28;20403;-80
2021/11/26 02:38:25;;;;;;;56.60;21.27;;;4.10;99.90;;;4.58;100.00;99374.53;5075168;28;20016;-80
2021/11/26 02:40:52;;;;;;;61.22;23.67;;;4.10;99.90;;;4.58;100.00;99366.22;5074028;28;20449;-81
2021/11/26 02:43:19;;;;;;;62.45;21.65;;;4.20;99.90;;;4.55;100.00;99360.59;5075364;28;20052;-81
2021/11/26 02:45:51;;;;;;;59.83;20.83;;;4.20;99.90;;;4.59;100.00;99351.22;5073790;28;20451;-80
2021/11/26 02:48:20;;;;;;;58.15;20.63;;;4.20;99.90;;;4.47;100.00;99347.69;5074107;28;20032;-80
2021/11/26 02:50:50;;;;;;;46.78;18.95;;;4.20;99.90;;;4.61;100.00;99340.66;5074181;28;20028;-82
2021/11/26 02:53:16;;;;;;;50.35;20.30;;;4.20;99.90;;;4.61;100.00;99342.59;5075894;28;20554;-81
2021/11/26 02:55:42;;;;;;;48.88;18.75;;;4.30;99.90;;;4.68;100.00;99340.06;5073875;28;20044;-79
2021/11/26 02:58:08;;;;;;;49.08;18.42;;;4.30;99.90;;;4.70;100.00;99344.06;5074557;28;20055;-79
2021/11/26 03:00:39;;;;;;;49.33;19.55;;;4.20;99.90;;;4.72;100.00;99340.94;5074946;28;20031;-81
2021/11/26 03:03:08;;;;;;;52.22;19.45;;;4.30;99.90;;;4.76;100.00;99341.84;5075537;28;20039;-82
2021/11/26 03:05:35;;;;;;;46.50;17.80;;;4.30;99.90;;;4.81;100.00;99329.75;5090797;28;20035;-82
2021/11/26 03:08:03;;;;;;;41.25;17.25;;;4.30;99.90;;;4.80;100.00;99323.41;5073422;28;20052;-82
2021/11/26 03:10:29;;;;;;;51.28;20.30;;;4.30;99.90;;;4.75;100.00;99329.97;5076605;28;20438;-82
2021/11/26 03:13:02;;;;;;;48.35;19.63;;;4.30;99.90;;;4.77;100.00;99322.16;5110441;28;20071;-82
2021/11/26 03:15:42;;;;;;;43.05;18.83;;;4.40;99.90;;;4.77;100.00;99319.41;5094199;28;20075;-83
2021/11/26 03:18:11;;;;;;;52.05;21.05;;;4.40;99.90;;;4.78;100.00;99312.69;5097746;28;20024;-80
2021/11/26 03:20:37;;;;;;;52.58;19.30;;;4.40;99.90;;;4.86;100.00;99315.66;5089191;28;20024;-82
2021/11/26 03:23:03;;;;;;;49.88;21.67;;;4.40;99.90;;;4.94;100.00;99303.66;5055306;28;20059;-84
2021/11/26 03:25:29;;;;;;;46.40;21.08;;;4.50;99.90;;;4.94;100.00;99307.22;5054188;28;20163;-81
2021/11/26 03:27:57;;;;;;;53.80;21.08;;;4.50;99.90;;;4.98;100.00;99302.56;5054668;28;20557;-81
2021/11/26 03:30:24;;;;;;;53.05;22.30;;;4.50;99.90;;;4.97;100.00;99287.16;5054484;28;20044;-79
2021/11/26 03:32:56;;;;;;;52.42;22.40;;;4.50;99.90;;;4.97;100.00;99280.81;5052974;28;20044;-81
2021/11/26 03:35:24;;;;;;;52.08;21.70;;;4.50;99.90;;;4.97;100.00;99286.34;5052869;28;20500;-81
2021/11/26 03:37:50;;;;;;;53.95;22.92;;;4.60;99.90;;;5.02;100.00;99277.78;5054084;28;20028;-80
2021/11/26 03:40:20;;;;;;;59.97;22.73;;;4.60;99.90;;;5.01;100.00;99265.88;5053987;28;20025;-81
2021/11/26 03:42:51;;;;;;;52.53;23.10;;;4.60;99.90;;;5.04;100.00;99273.47;5053886;28;20559;-79
2021/11/26 03:45:22;;;;;;;56.45;24.35;;;4.60;99.90;;;5.03;100.00;99265.56;5052815;28;20484;-79
2021/11/26 03:47:50;;;;;;;49.55;23.35;;;4.60;99.90;;;5.13;100.00;99267.81;5054085;28;20040;-81
2021/11/26 03:50:18;;;;;;;58.78;22.42;;;4.60;99.90;;;5.09;100.00;99255.81;5054468;28;20033;-80
2021/11/26 03:52:46;;;;;;;53.00;23.50;;;4.60;99.90;;;5.10;100.00;99257.44;5054156;28;20029;-81
2021/11/26 03:55:22;;;;;;;53.33;22.15;;;4.60;99.90;;;5.18;100.00;99256.44;5069377;28;20037;-82
2021/11/26 03:57:52;;;;;;;61.55;24.95;;;4.60;99.90;;;5.07;100.00;99242.31;5052902;28;20059;-81
2021/11/26 04:00:19;;;;;;;59.17;24.83;;;4.60;99.90;;;5.02;100.00;99236.25;5054213;28;20029;-79
2021/11/26 04:02:47;;;;;;;58.05;25.55;;;4.60;99.90;;;5.09;100.00;99237.25;5053590;28;20149;-81
2021/11/26 04:05:14;;;;;;;56.55;23.95;;;4.60;99.90;;;5.13;100.00;99232.63;5053342;28;20040;-82
2021/11/26 04:07:47;;;;;;;54.05;23.48;;;4.60;99.90;;;5.08;100.00;99219.03;5052801;28;20033;-80
2021/11/26 04:10:16;;;;;;;60.50;25.48;;;4.60;99.90;;;5.08;100.00;99216.28;5054040;28;20442;-81
2021/11/26 04:12:46;;;;;;;59.28;25.40;;;4.60;99.90;;;5.02;100.00;99217.69;5051909;28;20041;-79
2021/11/26 04:15:17;;;;;;;56.35;25.33;;;4.60;99.90;;;5.09;100.00;99212.34;5052224;28;20033;-81
2021/11/26 04:17:45;;;;;;;55.47;23.77;;;4.60;99.90;;;5.07;100.00;99216.66;5053902;28;20033;-82
2021/11/26 04:20:13;;;;;;;56.47;23.05;;;4.60;99.90;;;5.15;100.00;99207.34;5051819;28;20059;-80
2021/11/26 04:22:39;;;;;;;53.92;24.48;;;4.60;99.90;;;5.07;100.00;99202.81;5071705;28;20479;-78
2021/11/26 04:25:15;;;;;;;57.17;25.55;;;4.60;99.90;;;5.10;100.00;99199.31;5073545;28;20127;-78
2021/11/26 04:27:42;;;;;;;62.13;25.85;;;4.60;99.90;;;5.07;100.00;99194.50;5072790;28;20024;-80
2021/11/26 04:30:10;;;;;;;55.28;25.30;;;4.60;99.90;;;5.02;100.00;99189.22;5072956;28;20062;-82
2021/11/26 04:32:40;;;;;;;58.90;26.05;;;4.60;99.90;;;5.03;100.00;99186.13;5073770;28;20506;-80
2021/11/26 04:35:10;;;;;;;63.80;27.08;;;4.60;99.90;;;5.06;100.00;99188.16;5075267;28;20509;-81
2021/11/26 04:37:38;;;;;;;58.42;24.55;;;4.60;99.90;;;5.00;100.00;99177.72;5078503;28;20025;-81
2021/11/26 04:40:08;;;;;;;52.60;23.67;;;4.60;99.90;;;4.99;100.00;99176.09;5073774;28;20126;-78
2021/11/26 04:42:42;;;;;;;54.08;24.27;;;4.60;99.90;;;4.92;100.00;99167.63;5073472;28;20062;-80
2021/11/26 04:45:12;;;;;;;56.53;24.75;;;4.50;99.90;;;4.98;100.00;99163.41;5089173;28;20120;-79
2021/11/26 04:47:40;;;;;;;61.00;26.45;;;4.50;99.90;;;5.03;100.00;99163.16;5073320;28;20331;-80
2021/11/26 04:50:09;;;;;;;59.63;25.92;;;4.60;99.90;;;4.99;100.00;99153.97;5073817;28;20032;-80
2021/11/26 04:52:35;;;;;;;55.17;25.70;;;4.50;99.90;;;5.01;100.00;99146.13;5073710;28;20024;-80
2021/11/26 04:55:07;;;;;;;58.42;25.63;;;4.60;99.90;;;5.03;100.00;99146.56;5072051;28;20025;-81
2021/11/26 04:57:34;;;;;;;51.08;23.60;;;4.50;99.90;;;5.01;100.00;99140.59;5072111;28;20033;-82
2021/11/26 05:00:00;;;;;;;66.03;27.45;;;4.50;99.90;;;4.95;100.00;99136.47;5073212;28;20020;-79
2021/11/26 05:02:29;;;;;;;62.33;28.00;;;4.50;99.90;;;4.93;100.00;99128.53;5073008;28;20108;-78
2021/11/26 05:04:58;;;;;;;62.70;28.08;;;4.50;99.90;;;4.96;100.00;99127.03;5071949;28;20033;-84
2021/11/26 05:07:28;;;;;;;58.05;28.52;;;4.50;99.90;;;5.00;100.00;99111.31;5089959;28;20143;-80
2021/11/26 05:09:59;;;;;;;54.78;26.83;;;4.50;99.90;;;4.91;100.00;99111.50;5073159;28;20658;-80
2021/11/26 05:12:31;;;;;;;56.88;27.10;;;4.50;99.90;;;4.93;100.00;99109.19;5071664;28;20070;-79
2021/11/26 05:15:00;;;;;;;57.53;27.00;;;4.50;99.90;;;4.96;100.00;99108.47;5072151;28;20364;-80
2021/11/26 05:17:26;;;;;;;58.65;27.02;;;4.50;99.90;;;4.96;100.00;99100.16;5072229;28;20039;-80
2021/11/26 05:19:54;;;;;;;59.78;27.40;;;4.50;99.90;;;4.91;100.00;99096.88;5073285;28;20020;-81
2021/11/26 05:22:20;;;;;;;53.80;26.42;;;4.50;99.90;;;4.94;100.00;99093.38;5088844;28;20081;-82
2021/11/26 05:24:46;;;;;;;53.20;26.45;;;4.50;99.90;;;5.00;100.00;99092.75;5071571;28;20024;-80
2021/11/26 05:27:12;;;;;;;55.25;26.95;;;4.50;99.90;;;4.98;100.00;99080.41;5072627;28;20144;-80
2021/11/26 05:29:44;;;;;;;54.75;27.05;;;4.50;99.90;;;4.95;100.00;99081.13;5072986;28;20451;-82
2021/11/26 05:32:11;;;;;;;57.20;26.20;;;4.50;99.90;;;4.95;100.00;99065.34;5071183;28;20136;-81
2021/11/26 05:34:40;;;;;;;47.05;26.40;;;4.50;99.90;;;4.98;100.00;99058.28;5072736;28;20115;-82
2021/11/26 05:37:12;;;;;;;60.13;27.02;;;4.50;99.90;;;4.92;100.00;99052.22;5072232;28;20086;-80
2021/11/26 05:39:38;;;;;;;54.90;25.85;;;4.50;99.90;;;4.92;100.00;99066.06;5072577;28;20029;-79
2021/11/26 05:42:06;;;;;;;59.05;27.10;;;4.40;99.90;;;4.88;100.00;99059.63;5087742;28;20050;-79
2021/11/26 05:44:35;;;;;;;58.60;26.52;;;4.50;99.90;;;4.88;100.00;99070.69;5071478;28;20032;-81
2021/11/26 05:47:01;;;;;;;47.10;24.77;;;4.40;99.90;;;4.84;100.00;99064.31;5087807;28;20067;-80
2021/11/26 05:49:27;;;;;;;53.55;28.75;;;4.40;99.90;;;4.88;100.00;99061.63;5072439;28;20035;-79
2021/11/26 05:51:53;;;;;;;48.78;26.10;;;4.40;99.90;;;4.86;100.00;99056.44;5072846;28;20037;-80
2021/11/26 05:54:19;;;;;;;49.28;26.23;;;4.40;99.90;;;4.80;100.00;99046.81;5072197;28;20099;-81
2021/11/26 05:56:45;;;;;;;49.72;25.88;;;4.40;99.90;;;4.84;100.00;99055.19;5071954;28;20399;-82
2021/11/26 05:59:11;;;;;;;54.05;24.83;;;4.40;99.90;;;4.82;100.00;99052.00;5072292;28;20083;-80
2021/11/26 06:01:40;;;;;;;41.78;25.30;;;4.40;99.90;;;4.86;100.00;99050.91;5070701;28;20070;-80
2021/11/26 06:04:05;;;;;;;46.17;24.65;;;4.40;99.90;;;4.84;100.00;99050.47;5072524;28;20036;-80
2021/11/26 06:06:34;;;;;;;52.25;25.85;;;4.40;99.90;;;4.84;100.00;99041.38;5073244;28;20379;-78
2021/11/26 06:09:04;;;;;;;42.63;22.50;;;4.40;99.90;;;4.82;100.00;99038.16;5072407;28;20028;-80
2021/11/26 06:11:29;;;;;;;44.22;22.50;;;4.40;99.90;;;4.86;100.00;99044.56;5071443;28;20077;-78
2021/11/26 06:13:56;;;;;;;43.20;22.90;;;4.30;99.90;;;4.82;100.00;99030.66;5076816;28;20037;-81
2021/11/26 06:16:22;;;;;;;41.03;22.63;;;4.30;99.90;;;4.78;100.00;99036.09;5077590;28;20032;-81
2021/11/26 06:18:51;;;;;;;36.45;19.98;;;4.40;99.90;;;4.81;100.00;99033.78;5072830;28;20032;-78
2021/11/26 06:21:17;;;;;;;35.55;20.52;;;4.30;99.90;;;4.76;100.00;99027.38;5065766;28;20029;-79
2021/11/26 06:23:50;;;;;;;36.10;19.55;;;4.30;99.90;;;4.75;100.00;99028.50;5051520;28;20112;-80
2021/11/26 06:26:16;;;;;;;32.85;18.52;;;4.30;99.90;;;4.72;100.00;99020.94;5052081;28;20032;-79
2021/11/26 06:28:42;;;;;;;34.67;18.75;;;4.30;99.90;;;4.64;100.00;99013.66;5052295;28;20120;-78
2021/11/26 06:31:08;;;;;;;33.00;18.35;;;4.30;99.90;;;4.73;100.00;99014.25;5051183;28;20029;-79
2021/11/26 06:33:40;;;;;;;29.73;17.73;;;4.20;99.90;;;4.64;100.00;99005.34;5051037;28;20047;-79
2021/11/26 06:36:05;;;;;;;32.40;17.65;;;4.20;99.90;;;4.63;100.00;99009.28;5052275;28;20125;-79
2021/11/26 06:38:31;;;;;;;32.35;17.25;;;4.20;99.90;;;4.62;100.00;99001.34;5052000;28;20052;-81
2021/11/26 06:40:57;;;;;;;30.20;17.02;;;4.20;99.90;;;4.61;100.00;99002.50;5052919;28;20108;-79
2021/11/26 06:43:23;;;;;;;31.50;16.95;;;4.20;99.90;;;4.65;100.00;99000.63;5066563;28;20041;-78
2021/11/26 06:45:49;;;;;;;31.08;17.08;;;4.20;99.90;;;4.59;100.00;98989.00;5051396;28;20025;-79
2021/11/26 06:48:15;;;;;;;31.40;16.52;;;4.20;99.90;;;4.58;100.00;98986.63;5051198;28;20139;-79
2021/11/26 06:50:41;;;;;;;32.13;16.90;;;4.20;99.90;;;4.58;100.00;98989.38;5053440;28;20082;-80
2021/11/26 06:53:07;;;;;;;27.42;16.67;;;4.20;99.90;;;4.52;100.00;98985.28;5070432;28;20496;-80
2021/11/26 06:55:33;;;;;;;23.98;13.75;;;4.20;99.90;;;4.53;100.00;98982.16;5053766;28;20029;-80
2021/11/26 06:57:59;;;;;;;22.40;12.77;;;4.10;99.90;;;4.55;100.00;98984.56;5054593;28;20484;-78
2021/11/26 07:00:26;;;;;;;21.45;12.68;;;4.10;99.90;;;4.45;100.00;98985.94;5055525;28;20494;-79
2021/11/26 07:02:54;;;;;;;20.35;11.07;;;4.10;99.90;;;4.43;100.00;98977.16;5055824;28;20033;-78
2021/11/26 07:05:21;;;;;;;18.13;10.40;;;4.00;99.90;;;4.45;100.00;98980.41;5054483;28;20125;-79
2021/11/26 07:07:47;;;;;;;15.73;9.75;;;4.00;99.90;;;4.41;100.00;98975.94;5057236;28;20040;-77
2021/11/26 07:10:15;;;;;;;14.23;8.73;;;4.00;99.90;;;4.43;100.00;98982.69;5056839;28;20036;-78
2021/11/26 07:12:43;;;;;;;17.48;9.10;;;4.00;99.90;;;4.43;100.00;98976.41;5055003;28;20115;-77
2021/11/26 07:15:12;;;;;;;13.63;9.18;;;4.00;99.90;;;4.42;100.00;98975.59;5055838;28;20037;-80
2021/11/26 07:17:41;;;;;;;14.48;8.68;;;3.90;99.90;;;4.38;100.00;98969.16;5056189;28;20431;-79
2021/11/26 07:20:09;;;;;;;11.95;8.20;;;3.90;99.90;;;4.29;100.00;98963.03;5057908;28;20032;-81
2021/11/26 07:22:35;;;;;;;13.48;8.82;;;3.90;99.90;;;4.17;100.00;98963.13;5081970;28;20032;-81
2021/11/26 07:25:03;;;;;;;13.15;7.90;;;3.90;99.90;;;4.24;100.00;98964.06;5097042;28;20025;-82
2021/11/26 07:27:29;;;;;;;15.95;8.98;;;3.90;99.90;;;4.28;100.00;98958.63;5095149;28;20024;-83
2021/11/26 07:29:56;;;;;;;15.85;8.77;;;3.80;99.90;;;4.26;100.00;98952.69;5092325;28;20042;-82
2021/11/26 07:32:22;;;;;;;14.77;8.32;;;3.80;99.90;;;4.30;100.00;98955.53;5079169;28;20052;-81
2021/11/26 07:34:50;;;;;;;15.65;9.07;;;3.90;99.90;;;4.29;100.00;98962.22;5074925;28;20029;-80
2021/11/26 07:37:17;;;;;;;15.63;9.20;;;3.90;99.90;;;4.35;100.00;98958.00;5075222;28;20040;-79
2021/11/26 07:39:44;;;;;;;22.13;9.00;;;3.80;99.90;;;4.32;100.00;98948.47;5075334;28;20071;-79
2021/11/26 07:42:13;;;;;;;16.10;9.30;;;3.90;99.90;;;4.33;100.00;98946.53;5075117;28;20028;-79
2021/11/26 07:44:41;;;;;;;14.38;8.55;;;3.90;99.90;;;4.23;100.00;98950.63;5090842;28;20399;-81
2021/11/26 07:47:15;;;;;;;14.82;8.52;;;3.90;99.90;;;4.28;100.00;98950.34;5090929;28;20095;-81
2021/11/26 07:49:42;;;;;;;14.90;9.45;;;3.90;99.90;;;4.30;100.00;98945.28;5073967;28;20028;-81
2021/11/26 07:52:10;;;;;;;14.70;9.13;;;3.90;99.90;;;4.27;100.00;98942.44;5074486;28;20028;-79
2021/11/26 07:54:36;;;;;;;16.83;9.68;;;3.90;99.90;;;4.33;100.00;98930.75;5074608;28;20031;-80
2021/11/26 07:59:31;;;;;;;15.00;9.23;;;3.90;99.90;;;4.36;100.00;98920.94;5012864;28;20082;-77
2021/11/26 08:01:57;;;;;;;14.93;9.68;;;4.00;99.90;;;4.35;100.00;98919.31;5014314;28;20094;-78
2021/11/26 08:04:24;;;;;;;21.05;11.18;;;4.00;99.90;;;4.35;100.00;98919.31;5015261;28;20041;-78
2021/11/26 08:06:50;;;;;;;19.58;10.20;;;4.00;99.90;;;4.40;100.00;98910.78;5015454;28;20060;-78
2021/11/26 08:09:18;;;;;;;15.40;9.65;;;3.90;99.90;;;4.45;100.00;98903.00;5015279;28;20076;-78
2021/11/26 08:11:52;;;;;;;17.58;10.13;;;4.00;99.90;;;4.32;100.00;98904.25;5013505;28;20036;-77
2021/11/26 08:14:20;;;;;;;18.33;10.40;;;4.00;99.90;;;4.36;100.00;98888.56;5029727;28;20028;-80
2021/11/26 08:16:50;;;;;;;15.88;9.30;;;4.00;99.90;;;4.29;100.00;98882.06;5014685;28;20025;-78
2021/11/26 08:19:18;;;;;;;14.27;8.90;;;4.00;99.90;;;4.34;100.00;98879.81;5014311;28;20397;-77
2021/11/26 08:21:48;;;;;;;14.95;8.27;;;4.00;99.90;;;4.31;100.00;98876.97;5014252;28;20478;-77
2021/11/26 08:24:16;;;;;;;15.93;8.77;;;4.00;99.90;;;4.39;100.00;98878.75;5014820;28;20152;-77
2021/11/26 08:26:43;;;;;;;15.55;9.00;;;4.00;99.90;;;4.33;100.00;98874.66;5014129;28;20117;-77
2021/11/26 08:29:16;;;;;;;14.05;9.75;;;4.00;99.90;;;4.37;100.00;98862.53;5013380;28;20041;-78
2021/11/26 08:31:43;;;;;;;16.65;8.82;;;4.00;99.90;;;4.40;100.00;98861.81;5016732;28;20135;-77
2021/11/26 08:34:09;;;;;;;12.20;7.78;;;4.00;99.90;;;4.34;100.00;98856.91;5016342;28;20034;-77
2021/11/26 08:36:38;;;;;;;17.13;9.32;;;3.90;99.90;;;4.37;100.00;98854.22;5016271;28;20440;-78
2021/11/26 08:39:08;;;;;;;14.50;8.93;;;4.00;99.90;;;4.42;100.00;98850.41;5030179;28;20022;-77
2021/11/26 08:41:34;;;;;;;16.52;7.88;;;4.00;99.90;;;4.30;100.00;98845.81;5015376;28;20168;-77
2021/11/26 08:44:01;;;;;;;13.02;8.68;;;4.00;99.90;;;4.31;100.00;98850.16;5015228;28;20026;-77
2021/11/26 08:46:26;;;;;;;14.00;8.52;;;4.00;99.90;;;4.28;100.00;98847.28;5015996;28;20032;-77
2021/11/26 08:48:53;;;;;;;15.60;8.77;;;4.00;99.90;;;4.45;100.00;98844.94;5015750;28;20065;-77
2021/11/26 08:51:20;;;;;;;17.88;9.05;;;4.00;99.90;;;4.47;100.00;98834.31;5016330;28;20482;-77
2021/11/26 08:53:47;;;;;;;18.88;8.25;;;4.00;99.90;;;4.54;100.00;98834.47;5033032;28;20040;-75
2021/11/26 08:56:16;;;;;;;15.05;8.38;;;4.10;99.90;;;4.55;100.00;98841.63;5018499;28;20045;-76
2021/11/26 08:58:46;;;;;;;13.95;8.85;;;4.10;99.90;;;4.48;100.00;98838.69;5031063;28;20066;-77
2021/11/26 09:01:15;;;;;;;13.38;7.80;;;4.10;99.90;;;4.42;100.00;98823.56;5015617;28;20109;-78
2021/11/26 09:03:45;;;;;;;14.90;8.27;;;4.10;99.90;;;4.49;100.00;98828.44;5015325;28;20033;-78
2021/11/26 09:06:15;;;;;;;12.63;8.20;;;4.10;99.90;;;4.39;100.00;98824.28;5017736;28;20033;-78
2021/11/26 09:08:40;;;;;;;14.25;8.43;;;4.10;99.90;;;4.48;100.00;98815.78;5030843;28;20028;-77
2021/11/26 09:11:06;;;;;;;17.08;9.23;;;4.10;99.90;;;4.54;100.00;98806.84;5014797;28;20030;-78
2021/11/26 09:13:39;;;;;;;20.65;8.10;;;4.10;99.90;;;4.50;100.00;98805.16;5014607;28;20041;-76
2021/11/26 09:16:05;;;;;;;17.45;8.00;;;4.10;99.90;;;4.53;100.00;98804.41;5012972;28;20056;-77
2021/11/26 09:18:31;;;;;;;16.35;8.50;;;4.10;99.90;;;4.53;100.00;98801.66;5013367;28;20109;-77
2021/11/26 09:21:01;;;;;;;16.25;9.57;;;4.20;99.90;;;4.57;100.00;98806.13;5016051;28;20018;-78
2021/11/26 09:23:27;;;;;;;14.50;8.18;;;4.20;99.90;;;4.59;100.00;98801.00;5015606;28;20025;-77
2021/11/26 09:25:55;;;;;;;14.93;8.18;;;4.20;99.90;;;4.47;100.00;98801.16;5014948;28;20489;-78
2021/11/26 09:28:22;;;;;;;15.23;8.85;;;4.10;99.90;;;4.50;100.00;98794.91;5029158;28;20125;-78
2021/11/26 09:30:58;;;;;;;20.27;9.45;;;4.20;99.90;;;4.49;100.00;98798.84;5029611;28;20026;-78
2021/11/26 09:33:27;;;;;;;17.33;10.43;;;4.20;99.90;;;4.61;100.00;98793.16;5017279;28;20030;-78
2021/11/26 09:35:52;;;;;;;19.17;9.90;;;4.20;99.90;;;4.66;100.00;98786.53;5019282;28;20038;-78
2021/11/26 09:38:18;;;;;;;20.35;10.18;;;4.30;99.90;;;4.78;100.00;98786.41;5014342;28;20036;-78
2021/11/26 09:40:49;;;;;;;20.98;10.63;;;4.30;99.90;;;4.83;100.00;98777.00;5014941;28;20052;-76
2021/11/26 09:43:16;;;;;;;19.05;10.02;;;4.40;99.90;;;4.94;100.00;98780.78;5029371;28;20080;-77
2021/11/26 09:45:42;;;;;;;23.83;10.77;;;4.40;99.90;;;4.88;100.00;98771.19;5013936;28;20026;-77
2021/11/26 09:48:14;;;;;;;16.55;10.40;;;4.50;99.90;;;5.00;100.00;98760.75;5012797;28;20030;-77
2021/11/26 09:50:41;;;;;;;19.73;10.82;;;4.50;99.90;;;5.07;100.00;98760.88;5014463;28;20045;-77
2021/11/26 09:53:26;;;;;;;23.48;11.75;;;4.60;99.90;;;5.10;100.00;98751.84;5028878;28;20026;-80
2021/11/26 09:56:05;;;;;;;25.23;11.70;;;4.60;99.90;;;5.17;100.00;98751.97;5013403;28;20034;-77
2021/11/26 09:58:34;;;;;;;21.98;11.98;;;4.70;99.90;;;5.30;100.00;98741.50;5014738;28;20032;-77
2021/11/26 10:01:07;;;;;;;25.67;11.77;;;4.80;99.90;;;5.39;100.00;98736.56;5014183;28;20088;-77
2021/11/26 10:03:52;;;;;;;24.33;12.50;;;4.80;99.90;;;5.41;100.00;98736.16;5014242;28;20057;-80
2021/11/26 10:06:41;;;;;;;25.27;11.90;;;4.90;99.90;;;5.42;100.00;98726.69;5014159;28;20040;-79
2021/11/26 10:09:15;;;;;;;22.00;11.65;;;4.90;99.90;;;5.33;100.00;98722.19;5013450;28;20044;-79
2021/11/26 10:12:02;;;;;;;23.75;10.98;;;4.90;99.90;;;5.37;100.00;98716.72;5014151;28;20030;-78
2021/11/26 10:14:41;;;;;;;21.60;10.63;;;4.90;99.90;;;5.45;100.00;98720.41;5014215;28;20041;-79
2021/11/26 10:17:22;;;;;;;22.63;10.43;;;4.90;99.90;;;5.42;100.00;98702.59;5015230;28;20033;-77
2021/11/26 10:19:57;;;;;;;20.85;9.25;;;5.00;99.90;;;5.35;100.00;98705.25;5014629;28;20026;-78
2021/11/26 10:22:41;;;;;;;;;;;4.90;99.90;;;5.37;100.00;98691.81;5010981;28;20030;-78
2021/11/26 10:25:22;;;;;;;17.42;8.85;;;4.90;99.90;;;5.36;100.00;98687.47;5010717;28;20048;-77